sensor_id;sensor_type;location;lat;lon;timestamp;temperature;humidity
21259;DHT22;10787;53.364;-1.480;2022-11-28T00:00:26;6.00;99.90
21259;DHT22;10787;53.364;-1.480;2022-11-28T00:02:51;6.00;99.90
21259;DHT22;10787;53.364;-1.480;2022-11-28T00:05:17;5.90;99.90
21259;DHT22;10787;53.364;-1.480;2022-11-28T00:07:43;5.90;99.90
21259;DHT22;10787;53.364;-1.480;2022-11-28T00:10:09;5.80;99.90
21259;DHT22;10787;53.364;-1.480;2022-11-28T00:12:35;5.80;99.90
21259;DHT22;10787;53.364;-1.480;2022-11-28T00:15:03;5.80;99.90
21259;DHT22;10787;53.364;-1.480;2022-11-28T00:17:29;5.70;99.90
21259;DHT22;10787;53.364;-1.480;2022-11-28T00:19:55;5.70;99.90
21259;DHT22;10787;53.364;-1.480;2022-11-28T00:22:21;5.70;99.90
21259;DHT22;10787;53.364;-1.480;2022-11-28T00:24:53;5.60;99.90
21259;DHT22;10787;53.364;-1.480;2022-11-28T00:27:18;5.60;99.90
21259;DHT22;10787;53.364;-1.480;2022-11-28T00:29:45;5.60;99.90
21259;DHT22;10787;53.364;-1.480;2022-11-28T00:32:10;5.60;99.90
21259;DHT22;10787;53.364;-1.480;2022-11-28T00:34:36;5.60;99.90
21259;DHT22;10787;53.364;-1.480;2022-11-28T00:37:02;5.60;99.90
21259;DHT22;10787;53.364;-1.480;2022-11-28T00:39:28;5.60;99.90
21259;DHT22;10787;53.364;-1.480;2022-11-28T00:41:54;5.60;99.90
21259;DHT22;10787;53.364;-1.480;2022-11-28T00:44:20;5.60;99.90
21259;DHT22;10787;53.364;-1.480;2022-11-28T00:46:46;5.60;99.90
21259;DHT22;10787;53.364;-1.480;2022-11-28T00:49:12;5.60;99.90
21259;DHT22;10787;53.364;-1.480;2022-11-28T00:51:38;5.60;99.90
21259;DHT22;10787;53.364;-1.480;2022-11-28T00:54:04;5.60;99.90
21259;DHT22;10787;53.364;-1.480;2022-11-28T00:56:34;5.60;99.90
21259;DHT22;10787;53.364;-1.480;2022-11-28T00:59:00;5.60;99.90
21259;DHT22;10787;53.364;-1.480;2022-11-28T01:01:49;5.60;99.90
21259;DHT22;10787;53.364;-1.480;2022-11-28T01:04:15;5.60;99.90
21259;DHT22;10787;53.364;-1.480;2022-11-28T01:06:47;5.60;99.90
21259;DHT22;10787;53.364;-1.480;2022-11-28T01:09:16;5.60;99.90
21259;DHT22;10787;53.364;-1.480;2022-11-28T01:11:43;5.50;99.90
21259;DHT22;10787;53.364;-1.480;2022-11-28T01:14:10;5.50;99.90
21259;DHT22;10787;53.364;-1.480;2022-11-28T01:16:36;5.50;99.90
21259;DHT22;10787;53.364;-1.480;2022-11-28T01:19:02;5.40;99.90
21259;DHT22;10787;53.364;-1.480;2022-11-28T01:21:28;5.40;99.90
21259;DHT22;10787;53.364;-1.480;2022-11-28T01:23:54;5.40;99.90
21259;DHT22;10787;53.364;-1.480;2022-11-28T01:26:23;5.50;99.90
21259;DHT22;10787;53.364;-1.480;2022-11-28T01:28:49;5.50;99.90
21259;DHT22;10787;53.364;-1.480;2022-11-28T01:31:18;5.50;99.90
21259;DHT22;10787;53.364;-1.480;2022-11-28T01:33:44;5.60;99.90
21259;DHT22;10787;53.364;-1.480;2022-11-28T01:36:11;5.70;99.90
21259;DHT22;10787;53.364;-1.480;2022-11-28T01:38:38;5.80;99.90
21259;DHT22;10787;53.364;-1.480;2022-11-28T01:41:05;5.80;99.90
21259;DHT22;10787;53.364;-1.480;2022-11-28T01:43:31;5.90;99.90
21259;DHT22;10787;53.364;-1.480;2022-11-28T01:45:57;6.00;99.90
21259;DHT22;10787;53.364;-1.480;2022-11-28T01:48:28;6.10;99.90
21259;DHT22;10787;53.364;-1.480;2022-11-28T01:51:03;6.20;99.90
21259;DHT22;10787;53.364;-1.480;2022-11-28T01:53:34;6.30;99.90
21259;DHT22;10787;53.364;-1.480;2022-11-28T01:56:28;6.40;99.90
21259;DHT22;10787;53.364;-1.480;2022-11-28T01:59:00;6.50;99.90
21259;DHT22;10787;53.364;-1.480;2022-11-28T02:01:28;6.60;99.90
21259;DHT22;10787;53.364;-1.480;2022-11-28T02:03:54;6.70;99.90
21259;DHT22;10787;53.364;-1.480;2022-11-28T02:06:23;6.80;99.90
21259;DHT22;10787;53.364;-1.480;2022-11-28T02:08:51;6.80;99.90
21259;DHT22;10787;53.364;-1.480;2022-11-28T02:11:45;6.90;99.90
21259;DHT22;10787;53.364;-1.480;2022-11-28T02:17:06;6.90;99.90
21259;DHT22;10787;53.364;-1.480;2022-11-28T02:22:22;6.90;99.90
21259;DHT22;10787;53.364;-1.480;2022-11-28T02:27:47;6.70;99.90
21259;DHT22;10787;53.364;-1.480;2022-11-28T02:30:24;6.60;99.90
21259;DHT22;10787;53.364;-1.480;2022-11-28T02:35:55;6.50;99.90
21259;DHT22;10787;53.364;-1.480;2022-11-28T02:43:42;6.50;99.90
21259;DHT22;10787;53.364;-1.480;2022-11-28T02:46:14;6.40;99.90
21259;DHT22;10787;53.364;-1.480;2022-11-28T02:49:30;6.40;99.90
21259;DHT22;10787;53.364;-1.480;2022-11-28T02:51:59;6.40;99.90
21259;DHT22;10787;53.364;-1.480;2022-11-28T02:54:28;6.60;99.90
21259;DHT22;10787;53.364;-1.480;2022-11-28T02:56:56;6.60;99.90
21259;DHT22;10787;53.364;-1.480;2022-11-28T02:59:30;6.70;99.90
21259;DHT22;10787;53.364;-1.480;2022-11-28T03:01:56;6.70;99.90
21259;DHT22;10787;53.364;-1.480;2022-11-28T03:04:53;6.70;99.90
21259;DHT22;10787;53.364;-1.480;2022-11-28T03:09:55;6.80;99.90
21259;DHT22;10787;53.364;-1.480;2022-11-28T03:12:57;6.80;99.90
21259;DHT22;10787;53.364;-1.480;2022-11-28T03:15:31;6.80;99.90
21259;DHT22;10787;53.364;-1.480;2022-11-28T03:21:25;6.90;99.90
21259;DHT22;10787;53.364;-1.480;2022-11-28T03:23:51;6.90;99.90
21259;DHT22;10787;53.364;-1.480;2022-11-28T03:28:57;7.00;99.90
21259;DHT22;10787;53.364;-1.480;2022-11-28T03:31:48;7.00;99.90
21259;DHT22;10787;53.364;-1.480;2022-11-28T03:34:18;7.00;99.90
21259;DHT22;10787;53.364;-1.480;2022-11-28T03:36:57;7.00;99.90
21259;DHT22;10787;53.364;-1.480;2022-11-28T03:39:30;6.90;99.90
21259;DHT22;10787;53.364;-1.480;2022-11-28T03:42:13;6.90;99.90
21259;DHT22;10787;53.364;-1.480;2022-11-28T03:45:08;6.90;99.90
21259;DHT22;10787;53.364;-1.480;2022-11-28T03:47:57;6.90;99.90
21259;DHT22;10787;53.364;-1.480;2022-11-28T03:50:31;6.80;99.90
21259;DHT22;10787;53.364;-1.480;2022-11-28T03:53:02;6.80;99.90
21259;DHT22;10787;53.364;-1.480;2022-11-28T03:55:34;6.80;99.90
21259;DHT22;10787;53.364;-1.480;2022-11-28T04:00:37;6.70;99.90
21259;DHT22;10787;53.364;-1.480;2022-11-28T04:06:17;6.70;99.90
21259;DHT22;10787;53.364;-1.480;2022-11-28T04:08:59;6.70;99.90
21259;DHT22;10787;53.364;-1.480;2022-11-28T04:11:36;6.60;99.90
21259;DHT22;10787;53.364;-1.480;2022-11-28T04:14:23;6.60;99.90
21259;DHT22;10787;53.364;-1.480;2022-11-28T04:16:52;6.60;99.90
21259;DHT22;10787;53.364;-1.480;2022-11-28T04:19:28;6.60;99.90
21259;DHT22;10787;53.364;-1.480;2022-11-28T04:22:06;6.60;99.90
21259;DHT22;10787;53.364;-1.480;2022-11-28T04:27:32;6.60;99.90
21259;DHT22;10787;53.364;-1.480;2022-11-28T04:30:01;6.60;99.90
21259;DHT22;10787;53.364;-1.480;2022-11-28T04:32:30;6.60;99.90
21259;DHT22;10787;53.364;-1.480;2022-11-28T04:35:06;6.60;99.90
21259;DHT22;10787;53.364;-1.480;2022-11-28T04:37:35;6.60;99.90
21259;DHT22;10787;53.364;-1.480;2022-11-28T04:40:05;6.60;99.90
21259;DHT22;10787;53.364;-1.480;2022-11-28T04:42:40;6.60;99.90
21259;DHT22;10787;53.364;-1.480;2022-11-28T04:45:15;6.50;99.90
21259;DHT22;10787;53.364;-1.480;2022-11-28T04:47:43;6.50;99.90
21259;DHT22;10787;53.364;-1.480;2022-11-28T04:50:10;6.50;99.90
21259;DHT22;10787;53.364;-1.480;2022-11-28T04:52:45;6.50;99.90
21259;DHT22;10787;53.364;-1.480;2022-11-28T04:57:52;6.50;99.90
21259;DHT22;10787;53.364;-1.480;2022-11-28T05:00:20;6.50;99.90
21259;DHT22;10787;53.364;-1.480;2022-11-28T05:02:49;6.40;99.90
21259;DHT22;10787;53.364;-1.480;2022-11-28T05:05:19;6.40;99.90
21259;DHT22;10787;53.364;-1.480;2022-11-28T05:07:45;6.50;99.90
21259;DHT22;10787;53.364;-1.480;2022-11-28T05:10:13;6.40;99.90
21259;DHT22;10787;53.364;-1.480;2022-11-28T05:12:39;6.40;99.90
21259;DHT22;10787;53.364;-1.480;2022-11-28T05:15:06;6.40;99.90
21259;DHT22;10787;53.364;-1.480;2022-11-28T05:17:33;6.40;99.90
21259;DHT22;10787;53.364;-1.480;2022-11-28T05:19:58;6.50;99.90
21259;DHT22;10787;53.364;-1.480;2022-11-28T05:22:24;6.50;99.90
21259;DHT22;10787;53.364;-1.480;2022-11-28T05:24:50;6.50;99.90
21259;DHT22;10787;53.364;-1.480;2022-11-28T05:27:16;6.60;99.90
21259;DHT22;10787;53.364;-1.480;2022-11-28T05:29:42;6.60;99.90
21259;DHT22;10787;53.364;-1.480;2022-11-28T05:32:09;6.60;99.90
21259;DHT22;10787;53.364;-1.480;2022-11-28T05:34:35;6.60;99.90
21259;DHT22;10787;53.364;-1.480;2022-11-28T05:37:01;6.50;99.90
21259;DHT22;10787;53.364;-1.480;2022-11-28T05:39:27;6.50;99.90
21259;DHT22;10787;53.364;-1.480;2022-11-28T05:41:56;6.40;99.90
21259;DHT22;10787;53.364;-1.480;2022-11-28T05:44:22;6.40;99.90
21259;DHT22;10787;53.364;-1.480;2022-11-28T05:46:48;6.30;99.90
21259;DHT22;10787;53.364;-1.480;2022-11-28T05:49:14;6.40;99.90
21259;DHT22;10787;53.364;-1.480;2022-11-28T05:51:40;6.30;99.90
21259;DHT22;10787;53.364;-1.480;2022-11-28T05:54:06;6.40;99.90
21259;DHT22;10787;53.364;-1.480;2022-11-28T05:56:32;6.40;99.90
21259;DHT22;10787;53.364;-1.480;2022-11-28T05:58:58;6.40;99.90
21259;DHT22;10787;53.364;-1.480;2022-11-28T06:01:26;6.40;99.90
21259;DHT22;10787;53.364;-1.480;2022-11-28T06:03:52;6.40;99.90
21259;DHT22;10787;53.364;-1.480;2022-11-28T06:06:29;6.40;99.90
21259;DHT22;10787;53.364;-1.480;2022-11-28T06:08:56;6.30;99.90
21259;DHT22;10787;53.364;-1.480;2022-11-28T06:11:23;6.30;99.90
21259;DHT22;10787;53.364;-1.480;2022-11-28T06:13:50;6.20;99.90
21259;DHT22;10787;53.364;-1.480;2022-11-28T06:16:26;6.10;99.90
21259;DHT22;10787;53.364;-1.480;2022-11-28T06:18:54;6.00;99.90
21259;DHT22;10787;53.364;-1.480;2022-11-28T06:21:21;6.00;99.90
21259;DHT22;10787;53.364;-1.480;2022-11-28T06:23:47;5.90;99.90
21259;DHT22;10787;53.364;-1.480;2022-11-28T06:26:15;5.90;99.90
21259;DHT22;10787;53.364;-1.480;2022-11-28T06:28:41;5.80;99.90
21259;DHT22;10787;53.364;-1.480;2022-11-28T06:31:17;5.80;99.90
21259;DHT22;10787;53.364;-1.480;2022-11-28T06:33:44;5.70;99.90
21259;DHT22;10787;53.364;-1.480;2022-11-28T06:36:12;5.70;99.90
21259;DHT22;10787;53.364;-1.480;2022-11-28T06:38:38;5.70;99.90
21259;DHT22;10787;53.364;-1.480;2022-11-28T06:41:06;5.70;99.90
21259;DHT22;10787;53.364;-1.480;2022-11-28T06:43:32;5.60;99.90
21259;DHT22;10787;53.364;-1.480;2022-11-28T06:45:58;5.60;99.90
21259;DHT22;10787;53.364;-1.480;2022-11-28T06:48:25;5.60;99.90
21259;DHT22;10787;53.364;-1.480;2022-11-28T06:50:51;5.60;99.90
21259;DHT22;10787;53.364;-1.480;2022-11-28T06:53:17;5.60;99.90
21259;DHT22;10787;53.364;-1.480;2022-11-28T06:55:44;5.60;99.90
21259;DHT22;10787;53.364;-1.480;2022-11-28T06:58:10;5.60;99.90
21259;DHT22;10787;53.364;-1.480;2022-11-28T07:00:36;5.70;99.90
21259;DHT22;10787;53.364;-1.480;2022-11-28T07:03:02;5.70;99.90
21259;DHT22;10787;53.364;-1.480;2022-11-28T07:05:28;5.80;99.90
21259;DHT22;10787;53.364;-1.480;2022-11-28T07:07:56;5.90;99.90
21259;DHT22;10787;53.364;-1.480;2022-11-28T07:10:23;6.00;99.90
21259;DHT22;10787;53.364;-1.480;2022-11-28T07:12:54;6.10;99.90
21259;DHT22;10787;53.364;-1.480;2022-11-28T07:15:20;6.20;99.90
21259;DHT22;10787;53.364;-1.480;2022-11-28T07:17:46;6.30;99.90
21259;DHT22;10787;53.364;-1.480;2022-11-28T07:20:12;6.40;99.90
21259;DHT22;10787;53.364;-1.480;2022-11-28T07:22:38;6.60;99.90
21259;DHT22;10787;53.364;-1.480;2022-11-28T07:25:04;7.00;99.90
21259;DHT22;10787;53.364;-1.480;2022-11-28T07:27:30;7.40;99.90
21259;DHT22;10787;53.364;-1.480;2022-11-28T07:29:56;7.60;99.90
21259;DHT22;10787;53.364;-1.480;2022-11-28T07:32:21;7.80;99.90
21259;DHT22;10787;53.364;-1.480;2022-11-28T07:34:48;7.80;99.90
21259;DHT22;10787;53.364;-1.480;2022-11-28T07:37:14;7.70;99.90
21259;DHT22;10787;53.364;-1.480;2022-11-28T07:39:41;7.60;99.90
21259;DHT22;10787;53.364;-1.480;2022-11-28T07:42:09;7.60;99.90
21259;DHT22;10787;53.364;-1.480;2022-11-28T07:44:36;7.50;99.90
21259;DHT22;10787;53.364;-1.480;2022-11-28T07:47:02;7.40;99.90
21259;DHT22;10787;53.364;-1.480;2022-11-28T07:49:28;7.30;99.90
21259;DHT22;10787;53.364;-1.480;2022-11-28T07:51:54;7.20;99.90
21259;DHT22;10787;53.364;-1.480;2022-11-28T07:54:20;7.10;99.90
21259;DHT22;10787;53.364;-1.480;2022-11-28T07:56:45;7.10;99.90
21259;DHT22;10787;53.364;-1.480;2022-11-28T07:59:11;7.00;99.90
21259;DHT22;10787;53.364;-1.480;2022-11-28T08:01:37;7.00;99.90
21259;DHT22;10787;53.364;-1.480;2022-11-28T08:04:05;7.00;99.90
21259;DHT22;10787;53.364;-1.480;2022-11-28T08:06:36;6.90;99.90
21259;DHT22;10787;53.364;-1.480;2022-11-28T08:09:02;7.00;99.90
21259;DHT22;10787;53.364;-1.480;2022-11-28T08:11:28;7.00;99.90
21259;DHT22;10787;53.364;-1.480;2022-11-28T08:13:56;7.00;99.90
21259;DHT22;10787;53.364;-1.480;2022-11-28T08:16:24;7.10;99.90
21259;DHT22;10787;53.364;-1.480;2022-11-28T08:18:51;7.00;99.90
21259;DHT22;10787;53.364;-1.480;2022-11-28T08:21:23;7.10;99.90
21259;DHT22;10787;53.364;-1.480;2022-11-28T08:23:50;7.10;99.90
21259;DHT22;10787;53.364;-1.480;2022-11-28T08:26:23;7.10;99.90
21259;DHT22;10787;53.364;-1.480;2022-11-28T08:28:50;7.20;99.90
21259;DHT22;10787;53.364;-1.480;2022-11-28T08:31:20;7.20;99.90
21259;DHT22;10787;53.364;-1.480;2022-11-28T08:33:47;7.20;99.90
21259;DHT22;10787;53.364;-1.480;2022-11-28T08:36:15;7.20;99.90
21259;DHT22;10787;53.364;-1.480;2022-11-28T08:38:42;7.20;99.90
21259;DHT22;10787;53.364;-1.480;2022-11-28T08:41:21;7.20;99.90
21259;DHT22;10787;53.364;-1.480;2022-11-28T08:43:47;7.10;99.90
21259;DHT22;10787;53.364;-1.480;2022-11-28T08:46:16;7.10;99.90
21259;DHT22;10787;53.364;-1.480;2022-11-28T08:48:43;7.10;99.90
21259;DHT22;10787;53.364;-1.480;2022-11-28T08:51:19;7.00;99.90
21259;DHT22;10787;53.364;-1.480;2022-11-28T08:53:46;7.00;99.90
21259;DHT22;10787;53.364;-1.480;2022-11-28T08:56:12;7.00;99.90
21259;DHT22;10787;53.364;-1.480;2022-11-28T08:58:38;6.90;99.90
21259;DHT22;10787;53.364;-1.480;2022-11-28T09:01:14;7.00;99.90
21259;DHT22;10787;53.364;-1.480;2022-11-28T09:03:40;7.10;99.90
21259;DHT22;10787;53.364;-1.480;2022-11-28T09:06:06;7.10;99.90
21259;DHT22;10787;53.364;-1.480;2022-11-28T09:08:31;7.20;99.90
21259;DHT22;10787;53.364;-1.480;2022-11-28T09:10:58;7.30;99.90
21259;DHT22;10787;53.364;-1.480;2022-11-28T09:13:23;7.40;99.90
21259;DHT22;10787;53.364;-1.480;2022-11-28T09:15:49;7.50;99.90
21259;DHT22;10787;53.364;-1.480;2022-11-28T09:18:15;7.60;99.90
21259;DHT22;10787;53.364;-1.480;2022-11-28T09:20:42;7.60;99.90
21259;DHT22;10787;53.364;-1.480;2022-11-28T09:23:09;7.60;99.90
21259;DHT22;10787;53.364;-1.480;2022-11-28T09:25:36;7.60;99.90
21259;DHT22;10787;53.364;-1.480;2022-11-28T09:28:02;7.60;99.90
21259;DHT22;10787;53.364;-1.480;2022-11-28T09:30:28;7.50;99.90
21259;DHT22;10787;53.364;-1.480;2022-11-28T09:32:54;7.50;99.90
21259;DHT22;10787;53.364;-1.480;2022-11-28T09:35:20;7.60;99.90
21259;DHT22;10787;53.364;-1.480;2022-11-28T09:37:46;7.60;99.90
21259;DHT22;10787;53.364;-1.480;2022-11-28T09:40:17;7.70;99.90
21259;DHT22;10787;53.364;-1.480;2022-11-28T09:42:44;7.70;99.90
21259;DHT22;10787;53.364;-1.480;2022-11-28T09:45:21;7.80;99.90
21259;DHT22;10787;53.364;-1.480;2022-11-28T09:47:50;7.90;99.90
21259;DHT22;10787;53.364;-1.480;2022-11-28T09:50:27;7.90;99.90
21259;DHT22;10787;53.364;-1.480;2022-11-28T09:52:59;8.00;99.90
21259;DHT22;10787;53.364;-1.480;2022-11-28T09:58:42;8.00;99.90
21259;DHT22;10787;53.364;-1.480;2022-11-28T10:04:23;8.00;99.90
21259;DHT22;10787;53.364;-1.480;2022-11-28T10:06:57;8.10;99.90
21259;DHT22;10787;53.364;-1.480;2022-11-28T10:09:32;8.00;99.90
21259;DHT22;10787;53.364;-1.480;2022-11-28T10:15:27;8.20;99.90
21259;DHT22;10787;53.364;-1.480;2022-11-28T10:20:44;8.40;99.90
21259;DHT22;10787;53.364;-1.480;2022-11-28T10:25:45;8.50;99.90
21259;DHT22;10787;53.364;-1.480;2022-11-28T10:28:17;8.50;99.90
21259;DHT22;10787;53.364;-1.480;2022-11-28T10:30:52;8.50;99.90
21259;DHT22;10787;53.364;-1.480;2022-11-28T10:33:30;8.50;99.90
21259;DHT22;10787;53.364;-1.480;2022-11-28T10:35:59;8.50;99.90
21259;DHT22;10787;53.364;-1.480;2022-11-28T10:38:29;8.50;99.90
21259;DHT22;10787;53.364;-1.480;2022-11-28T10:48:43;8.70;99.90
21259;DHT22;10787;53.364;-1.480;2022-11-28T11:02:50;9.00;99.90
21259;DHT22;10787;53.364;-1.480;2022-11-28T11:05:24;9.00;99.90
21259;DHT22;10787;53.364;-1.480;2022-11-28T11:15:45;8.90;99.90
21259;DHT22;10787;53.364;-1.480;2022-11-28T11:18:22;9.10;99.90
21259;DHT22;10787;53.364;-1.480;2022-11-28T11:20:49;9.20;99.90
21259;DHT22;10787;53.364;-1.480;2022-11-28T11:25:52;9.60;99.90
21259;DHT22;10787;53.364;-1.480;2022-11-28T11:28:39;10.20;99.90
21259;DHT22;10787;53.364;-1.480;2022-11-28T11:31:18;11.30;99.90
21259;DHT22;10787;53.364;-1.480;2022-11-28T11:33:46;12.30;99.90
21259;DHT22;10787;53.364;-1.480;2022-11-28T11:36:30;12.30;99.90
21259;DHT22;10787;53.364;-1.480;2022-11-28T11:39:05;12.10;99.90
21259;DHT22;10787;53.364;-1.480;2022-11-28T11:41:32;12.30;99.90
21259;DHT22;10787;53.364;-1.480;2022-11-28T11:46:53;13.10;99.90
21259;DHT22;10787;53.364;-1.480;2022-11-28T11:55:02;15.80;99.90
21259;DHT22;10787;53.364;-1.480;2022-11-28T11:57:38;16.60;99.90
21259;DHT22;10787;53.364;-1.480;2022-11-28T12:00:13;16.80;99.90
21259;DHT22;10787;53.364;-1.480;2022-11-28T12:06:03;17.50;99.90
21259;DHT22;10787;53.364;-1.480;2022-11-28T12:08:40;17.80;99.90
21259;DHT22;10787;53.364;-1.480;2022-11-28T12:11:34;18.20;99.90
21259;DHT22;10787;53.364;-1.480;2022-11-28T12:14:29;18.30;99.90
21259;DHT22;10787;53.364;-1.480;2022-11-28T12:17:08;18.50;99.90
21259;DHT22;10787;53.364;-1.480;2022-11-28T12:30:56;18.10;99.90
21259;DHT22;10787;53.364;-1.480;2022-11-28T12:41:58;18.20;99.90
21259;DHT22;10787;53.364;-1.480;2022-11-28T12:50:35;19.70;99.90
21259;DHT22;10787;53.364;-1.480;2022-11-28T12:56:07;20.70;99.90
21259;DHT22;10787;53.364;-1.480;2022-11-28T12:59:21;20.60;99.90
21259;DHT22;10787;53.364;-1.480;2022-11-28T13:09:36;20.00;99.90
21259;DHT22;10787;53.364;-1.480;2022-11-28T13:12:10;19.70;99.90
21259;DHT22;10787;53.364;-1.480;2022-11-28T13:14:56;19.70;99.90
21259;DHT22;10787;53.364;-1.480;2022-11-28T13:31:19;20.70;99.90
21259;DHT22;10787;53.364;-1.480;2022-11-28T13:33:53;21.60;99.90
21259;DHT22;10787;53.364;-1.480;2022-11-28T13:36:36;22.40;99.90
21259;DHT22;10787;53.364;-1.480;2022-11-28T13:39:19;22.80;99.90
21259;DHT22;10787;53.364;-1.480;2022-11-28T13:46:53;22.60;99.90
21259;DHT22;10787;53.364;-1.480;2022-11-28T13:49:24;22.50;99.90
21259;DHT22;10787;53.364;-1.480;2022-11-28T13:54:44;22.50;99.90
21259;DHT22;10787;53.364;-1.480;2022-11-28T13:57:45;22.00;99.90
21259;DHT22;10787;53.364;-1.480;2022-11-28T14:00:22;21.40;99.90
21259;DHT22;10787;53.364;-1.480;2022-11-28T14:02:55;21.50;99.90
21259;DHT22;10787;53.364;-1.480;2022-11-28T14:05:33;21.60;99.90
21259;DHT22;10787;53.364;-1.480;2022-11-28T14:08:02;21.20;99.90
21259;DHT22;10787;53.364;-1.480;2022-11-28T14:11:12;20.60;99.90
21259;DHT22;10787;53.364;-1.480;2022-11-28T14:21:38;19.30;99.90
21259;DHT22;10787;53.364;-1.480;2022-11-28T14:27:00;19.50;99.90
21259;DHT22;10787;53.364;-1.480;2022-11-28T14:29:35;19.60;99.90
21259;DHT22;10787;53.364;-1.480;2022-11-28T14:32:03;19.60;99.90
21259;DHT22;10787;53.364;-1.480;2022-11-28T14:34:45;19.70;99.90
21259;DHT22;10787;53.364;-1.480;2022-11-28T14:39:50;20.30;99.90
21259;DHT22;10787;53.364;-1.480;2022-11-28T14:47:29;19.70;99.90
21259;DHT22;10787;53.364;-1.480;2022-11-28T14:52:48;19.20;99.90
21259;DHT22;10787;53.364;-1.480;2022-11-28T14:55:20;19.10;99.90
21259;DHT22;10787;53.364;-1.480;2022-11-28T15:03:29;19.00;99.90
21259;DHT22;10787;53.364;-1.480;2022-11-28T15:06:20;18.80;99.90
21259;DHT22;10787;53.364;-1.480;2022-11-28T15:11:50;17.70;99.90
21259;DHT22;10787;53.364;-1.480;2022-11-28T15:14:25;16.80;99.90
21259;DHT22;10787;53.364;-1.480;2022-11-28T15:16:55;15.60;99.90
21259;DHT22;10787;53.364;-1.480;2022-11-28T15:19:32;14.80;99.90
21259;DHT22;10787;53.364;-1.480;2022-11-28T15:21:59;14.10;99.90
21259;DHT22;10787;53.364;-1.480;2022-11-28T15:24:31;13.50;99.90
21259;DHT22;10787;53.364;-1.480;2022-11-28T15:27:26;13.00;99.90
21259;DHT22;10787;53.364;-1.480;2022-11-28T15:29:59;12.50;99.90
21259;DHT22;10787;53.364;-1.480;2022-11-28T15:32:27;11.90;99.90
21259;DHT22;10787;53.364;-1.480;2022-11-28T15:34:58;11.40;99.90
21259;DHT22;10787;53.364;-1.480;2022-11-28T15:37:32;11.00;99.90
21259;DHT22;10787;53.364;-1.480;2022-11-28T15:40:18;10.80;99.90
21259;DHT22;10787;53.364;-1.480;2022-11-28T15:42:48;10.60;99.90
21259;DHT22;10787;53.364;-1.480;2022-11-28T15:45:34;10.40;99.90
21259;DHT22;10787;53.364;-1.480;2022-11-28T15:48:02;10.20;99.90
21259;DHT22;10787;53.364;-1.480;2022-11-28T15:50:31;10.00;99.90
21259;DHT22;10787;53.364;-1.480;2022-11-28T15:53:16;9.90;99.90
21259;DHT22;10787;53.364;-1.480;2022-11-28T15:55:42;9.70;99.90
21259;DHT22;10787;53.364;-1.480;2022-11-28T15:58:33;9.60;99.90
21259;DHT22;10787;53.364;-1.480;2022-11-28T16:01:18;9.40;99.90
21259;DHT22;10787;53.364;-1.480;2022-11-28T16:06:14;9.20;99.90
21259;DHT22;10787;53.364;-1.480;2022-11-28T16:08:53;9.10;99.90
21259;DHT22;10787;53.364;-1.480;2022-11-28T16:11:23;9.00;99.90
21259;DHT22;10787;53.364;-1.480;2022-11-28T16:13:51;8.80;99.90
21259;DHT22;10787;53.364;-1.480;2022-11-28T16:16:27;8.80;99.90
21259;DHT22;10787;53.364;-1.480;2022-11-28T16:19:01;8.70;99.90
21259;DHT22;10787;53.364;-1.480;2022-11-28T16:21:34;8.60;99.90
21259;DHT22;10787;53.364;-1.480;2022-11-28T16:24:02;8.40;99.90
21259;DHT22;10787;53.364;-1.480;2022-11-28T16:26:40;8.30;99.90
21259;DHT22;10787;53.364;-1.480;2022-11-28T16:31:32;8.20;99.90
21259;DHT22;10787;53.364;-1.480;2022-11-28T16:33:59;8.10;99.90
21259;DHT22;10787;53.364;-1.480;2022-11-28T16:41:30;7.90;99.90
21259;DHT22;10787;53.364;-1.480;2022-11-28T16:44:01;7.90;99.90
21259;DHT22;10787;53.364;-1.480;2022-11-28T16:46:34;7.80;99.90
21259;DHT22;10787;53.364;-1.480;2022-11-28T16:49:01;7.70;99.90
21259;DHT22;10787;53.364;-1.480;2022-11-28T16:51:32;7.70;99.90
21259;DHT22;10787;53.364;-1.480;2022-11-28T16:54:19;7.70;99.90
21259;DHT22;10787;53.364;-1.480;2022-11-28T16:56:46;7.60;99.90
21259;DHT22;10787;53.364;-1.480;2022-11-28T17:01:40;7.60;99.90
21259;DHT22;10787;53.364;-1.480;2022-11-28T17:06:44;7.50;99.90
21259;DHT22;10787;53.364;-1.480;2022-11-28T17:09:11;7.40;99.90
21259;DHT22;10787;53.364;-1.480;2022-11-28T17:11:42;7.40;99.90
21259;DHT22;10787;53.364;-1.480;2022-11-28T17:14:10;7.40;99.90
21259;DHT22;10787;53.364;-1.480;2022-11-28T17:16:36;7.30;99.90
21259;DHT22;10787;53.364;-1.480;2022-11-28T17:19:03;7.30;99.90
21259;DHT22;10787;53.364;-1.480;2022-11-28T17:21:39;7.20;99.90
21259;DHT22;10787;53.364;-1.480;2022-11-28T17:24:27;7.20;99.90
21259;DHT22;10787;53.364;-1.480;2022-11-28T17:26:54;7.10;99.90
21259;DHT22;10787;53.364;-1.480;2022-11-28T17:29:20;7.10;99.90
21259;DHT22;10787;53.364;-1.480;2022-11-28T17:31:47;7.00;99.90
21259;DHT22;10787;53.364;-1.480;2022-11-28T17:34:14;7.00;99.90
21259;DHT22;10787;53.364;-1.480;2022-11-28T17:36:40;7.10;99.90
21259;DHT22;10787;53.364;-1.480;2022-11-28T17:39:06;7.10;99.90
21259;DHT22;10787;53.364;-1.480;2022-11-28T17:41:32;7.10;99.90
21259;DHT22;10787;53.364;-1.480;2022-11-28T17:43:58;7.10;99.90
21259;DHT22;10787;53.364;-1.480;2022-11-28T17:46:25;7.10;99.90
21259;DHT22;10787;53.364;-1.480;2022-11-28T17:48:51;7.10;99.90
21259;DHT22;10787;53.364;-1.480;2022-11-28T17:51:19;7.20;99.90
21259;DHT22;10787;53.364;-1.480;2022-11-28T17:53:45;7.20;99.90
21259;DHT22;10787;53.364;-1.480;2022-11-28T17:56:11;7.30;99.90
21259;DHT22;10787;53.364;-1.480;2022-11-28T17:58:39;7.40;99.90
21259;DHT22;10787;53.364;-1.480;2022-11-28T18:01:13;7.50;99.90
21259;DHT22;10787;53.364;-1.480;2022-11-28T18:03:43;7.50;99.90
21259;DHT22;10787;53.364;-1.480;2022-11-28T18:06:16;7.60;99.90
21259;DHT22;10787;53.364;-1.480;2022-11-28T18:08:44;7.70;99.90
21259;DHT22;10787;53.364;-1.480;2022-11-28T18:11:11;7.80;99.90
21259;DHT22;10787;53.364;-1.480;2022-11-28T18:13:38;7.80;99.90
21259;DHT22;10787;53.364;-1.480;2022-11-28T18:16:04;7.90;99.90
21259;DHT22;10787;53.364;-1.480;2022-11-28T18:18:30;7.90;99.90
21259;DHT22;10787;53.364;-1.480;2022-11-28T18:20:57;8.00;99.90
21259;DHT22;10787;53.364;-1.480;2022-11-28T18:23:24;8.00;99.90
21259;DHT22;10787;53.364;-1.480;2022-11-28T18:25:50;8.00;99.90
21259;DHT22;10787;53.364;-1.480;2022-11-28T18:28:16;8.00;99.90
21259;DHT22;10787;53.364;-1.480;2022-11-28T18:30:44;8.00;99.90
21259;DHT22;10787;53.364;-1.480;2022-11-28T18:33:11;8.10;99.90
21259;DHT22;10787;53.364;-1.480;2022-11-28T18:35:38;8.10;99.90
21259;DHT22;10787;53.364;-1.480;2022-11-28T18:38:05;8.10;99.90
21259;DHT22;10787;53.364;-1.480;2022-11-28T18:40:33;8.10;99.90
21259;DHT22;10787;53.364;-1.480;2022-11-28T18:43:00;8.00;99.90
21259;DHT22;10787;53.364;-1.480;2022-11-28T18:45:26;8.10;99.90
21259;DHT22;10787;53.364;-1.480;2022-11-28T18:47:53;8.00;99.90
21259;DHT22;10787;53.364;-1.480;2022-11-28T18:50:19;8.10;99.90
21259;DHT22;10787;53.364;-1.480;2022-11-28T18:52:45;8.10;99.90
21259;DHT22;10787;53.364;-1.480;2022-11-28T18:55:10;8.10;99.90
21259;DHT22;10787;53.364;-1.480;2022-11-28T18:57:36;8.10;99.90
21259;DHT22;10787;53.364;-1.480;2022-11-28T19:00:04;8.10;99.90
21259;DHT22;10787;53.364;-1.480;2022-11-28T19:02:30;8.10;99.90
21259;DHT22;10787;53.364;-1.480;2022-11-28T19:04:56;8.00;99.90